»·PEaware :: CFSAT KFUL-KGCN

CFSAT :: KFUL-KGCN

FLIGHT INFORMATION

Flight Status: Arrived
Operator: Unknown
More flights by this operator :: More flights under this callsign
Pilot: Frank S. (34870)
Aircraft: CIRRUS SR-22 TURBO
(S22T)
More flights by this aircraft type
Origin: KFUL Fullerton Mun
United States
Destination: KGCN Grand Canyon Natl Park
United States
More flights between these airports :: More routes between these airports
Route: ANAHM1 HEC V210 AMERE
File this flight plan on PilotEdge
Remarks:
Altitude:
(Current/Filed)
17,000ft
Speed:
(Current/Filed)
165kts
Departed: 31-Oct-21 08:32 AM
Arrived: 31-Oct-21 10:20 AM
Distance/Time
Traveled:
313nm/1:48
Distance/Time
To Go:
Arrived

Flight Plot

Page will automatically refresh every two minutes.

Flight plan parsing failed; only flown route is shown


Map Options




Map Legend


Flown Route
Filed Route
Departure Airport
Arrival Airport
Navaid (VOR, NDB)
Fix

Horizontal Profiles

Position Reports

Time Latitude Longitude Heading Altitude Ground
Speed
31-Oct-21 08:06 33.870980 -117.978555 259 92ft 0kts
31-Oct-21 08:07 33.870980 -117.978555 258 92ft 0kts
31-Oct-21 08:08 33.870980 -117.978555 258 92ft 0kts
31-Oct-21 08:09 33.870980 -117.978555 258 92ft 0kts
31-Oct-21 08:10 33.870980 -117.978555 258 92ft 0kts
31-Oct-21 08:11 33.870980 -117.978555 258 92ft 0kts
31-Oct-21 08:12 33.870980 -117.978555 258 92ft 0kts
31-Oct-21 08:13 33.870980 -117.978555 258 92ft 0kts
31-Oct-21 08:14 33.870980 -117.978555 258 92ft 0kts
31-Oct-21 08:15 33.870980 -117.978555 258 92ft 0kts
31-Oct-21 08:16 33.870980 -117.978555 258 92ft 0kts
31-Oct-21 08:17 33.870980 -117.978555 258 92ft 0kts
31-Oct-21 08:18 33.870980 -117.978555 258 92ft 0kts
31-Oct-21 08:19 33.870980 -117.978555 258 92ft 0kts
31-Oct-21 08:20 33.870980 -117.978555 258 92ft 0kts
31-Oct-21 08:21 33.870980 -117.978555 258 92ft 0kts
31-Oct-21 08:22 33.870980 -117.978555 258 92ft 0kts
31-Oct-21 08:23 33.870980 -117.978555 258 92ft 0kts
31-Oct-21 08:24 33.870980 -117.978555 258 92ft 0kts
31-Oct-21 08:25 33.870980 -117.978555 258 92ft 0kts
31-Oct-21 08:26 33.870980 -117.978555 258 92ft 0kts
31-Oct-21 08:27 33.870979 -117.978562 258 92ft 1kts
31-Oct-21 08:28 33.872105 -117.976939 78 94ft 11kts
31-Oct-21 08:29 33.872561 -117.974891 41 95ft 0kts
31-Oct-21 08:30 33.872709 -117.974809 4 95ft 2kts
31-Oct-21 08:31 33.870036 -117.990002 255 445ft 106kts
31-Oct-21 08:32 33.845764 -117.997312 127 1741ft 123kts
31-Oct-21 08:34 33.822980 -117.966524 126 3238ft 125kts
31-Oct-21 08:35 33.799758 -117.935232 126 4590ft 131kts
31-Oct-21 08:36 33.775972 -117.901953 105 5876ft 135kts
31-Oct-21 08:37 33.788999 -117.859475 63 7261ft 144kts
31-Oct-21 08:38 33.807039 -117.815577 64 8579ft 150kts
31-Oct-21 08:39 33.826619 -117.764606 65 9002ft 188kts
31-Oct-21 08:40 33.848715 -117.708064 62 8988ft 184kts
31-Oct-21 08:41 33.870109 -117.653794 62 8995ft 176kts
31-Oct-21 08:42 33.890951 -117.600339 61 9000ft 175kts
31-Oct-21 08:43 33.911655 -117.547139 62 8999ft 176kts
31-Oct-21 08:44 33.947474 -117.512054 20 8999ft 170kts
31-Oct-21 08:45 33.986666 -117.489219 18 10343ft 146kts
31-Oct-21 08:46 34.025879 -117.465848 20 11012ft 180kts
31-Oct-21 08:47 34.070838 -117.438431 20 10990ft 178kts
31-Oct-21 08:48 34.115121 -117.411812 20 10993ft 178kts
31-Oct-21 08:49 34.159458 -117.385115 20 10993ft 177kts
31-Oct-21 08:50 34.203713 -117.358430 20 10993ft 178kts
31-Oct-21 08:51 34.247924 -117.331738 20 10990ft 177kts
31-Oct-21 08:52 34.287734 -117.307875 18 11938ft 155kts
31-Oct-21 08:53 34.327784 -117.283498 19 12530ft 163kts
31-Oct-21 08:54 34.368920 -117.258736 19 13013ft 173kts
31-Oct-21 08:55 34.413671 -117.231445 20 13009ft 183kts
31-Oct-21 08:56 34.459291 -117.203708 20 13011ft 184kts
31-Oct-21 08:57 34.505127 -117.175844 20 13016ft 184kts
31-Oct-21 08:58 34.549132 -117.144481 47 13009ft 192kts
31-Oct-21 08:59 34.572161 -117.085227 63 13092ft 190kts
31-Oct-21 09:00 34.592297 -117.029821 62 13812ft 176kts
31-Oct-21 09:01 34.612162 -116.975228 63 14295ft 177kts
31-Oct-21 09:02 34.632061 -116.920480 63 14647ft 178kts
31-Oct-21 09:02 34.648757 -116.874488 63 14937ft 178kts
31-Oct-21 09:04 34.672150 -116.809943 63 15313ft 180kts
31-Oct-21 09:05 34.692378 -116.754020 63 15623ft 181kts
31-Oct-21 09:06 34.712638 -116.697910 63 15927ft 182kts
31-Oct-21 09:06 34.729598 -116.650871 63 16163ft 184kts
31-Oct-21 09:07 34.750203 -116.593618 63 16463ft 185kts
31-Oct-21 09:09 34.774316 -116.526488 63 16803ft 186kts
31-Oct-21 09:09 34.791676 -116.478072 63 17007ft 189kts
31-Oct-21 09:10 34.809466 -116.416234 69 17031ft 197kts
31-Oct-21 09:11 34.826461 -116.352367 69 17044ft 202kts
31-Oct-21 09:13 34.846983 -116.274569 70 17055ft 206kts
31-Oct-21 09:13 34.861493 -116.219608 70 17071ft 204kts
31-Oct-21 09:14 34.878837 -116.153782 70 17090ft 203kts
31-Oct-21 09:15 34.896150 -116.087885 70 17086ft 205kts
31-Oct-21 09:16 34.913505 -116.021636 70 17079ft 206kts
31-Oct-21 09:17 34.930945 -115.954902 71 17072ft 207kts
31-Oct-21 09:18 34.948455 -115.887733 71 17068ft 208kts
31-Oct-21 09:19 34.965996 -115.820273 71 17072ft 209kts
31-Oct-21 09:20 34.983567 -115.752523 71 17079ft 210kts
31-Oct-21 09:21 35.001224 -115.684242 71 17091ft 211kts
31-Oct-21 09:22 35.018982 -115.615379 72 17072ft 213kts
31-Oct-21 09:23 35.036808 -115.546083 72 17043ft 215kts
31-Oct-21 09:24 35.054692 -115.476383 72 17015ft 215kts
31-Oct-21 09:25 35.072571 -115.406544 72 17000ft 215kts
31-Oct-21 09:26 35.090440 -115.336568 73 16996ft 215kts
31-Oct-21 09:27 35.108161 -115.267026 73 16991ft 214kts
31-Oct-21 09:28 35.125790 -115.197630 73 16988ft 213kts
31-Oct-21 09:29 35.145274 -115.129113 68 16989ft 213kts
31-Oct-21 09:30 35.166597 -115.062020 69 16989ft 211kts
31-Oct-21 09:31 35.187446 -114.994951 69 16989ft 209kts
31-Oct-21 09:32 35.207995 -114.928432 69 16989ft 208kts
31-Oct-21 09:33 35.228371 -114.862324 69 16990ft 208kts
31-Oct-21 09:34 35.248774 -114.795962 69 16990ft 208kts
31-Oct-21 09:35 35.269119 -114.729635 69 16991ft 208kts
31-Oct-21 09:36 35.289382 -114.663426 69 16991ft 208kts
31-Oct-21 09:37 35.309691 -114.596908 69 16991ft 208kts
31-Oct-21 09:38 35.329913 -114.530520 69 16992ft 208kts
31-Oct-21 09:39 35.350098 -114.464094 69 16995ft 208kts
31-Oct-21 09:40 35.370254 -114.397640 69 17023ft 208kts
31-Oct-21 09:41 35.390397 -114.331056 70 17047ft 208kts
31-Oct-21 09:42 35.410453 -114.264619 70 17075ft 208kts
31-Oct-21 09:43 35.430520 -114.197958 70 17090ft 209kts
31-Oct-21 09:44 35.450665 -114.130874 70 17090ft 209kts
31-Oct-21 09:45 35.470772 -114.063710 70 16905ft 217kts
31-Oct-21 09:46 35.491743 -113.993151 70 16422ft 220kts
31-Oct-21 09:47 35.512758 -113.922666 70 15926ft 219kts
31-Oct-21 09:48 35.533609 -113.852505 71 15430ft 218kts
31-Oct-21 09:49 35.554192 -113.783089 71 14937ft 216kts
31-Oct-21 09:50 35.574645 -113.713981 71 14444ft 214kts
31-Oct-21 09:51 35.594872 -113.645463 71 13953ft 212kts
31-Oct-21 09:52 35.614887 -113.577492 71 13464ft 211kts
31-Oct-21 09:53 35.633773 -113.509503 75 12973ft 209kts
31-Oct-21 09:54 35.650093 -113.441423 75 12486ft 207kts
31-Oct-21 09:55 35.666582 -113.373810 74 11999ft 205kts
31-Oct-21 09:56 35.682923 -113.307043 75 11506ft 203kts
31-Oct-21 09:57 35.699109 -113.240760 75 11008ft 201kts
31-Oct-21 09:58 35.714773 -113.176907 75 10913ft 188kts
31-Oct-21 09:59 35.729685 -113.115694 76 10952ft 186kts
31-Oct-21 10:00 35.744430 -113.054833 74 10983ft 186kts
31-Oct-21 10:01 35.759350 -112.993076 73 11001ft 189kts
31-Oct-21 10:02 35.774309 -112.930975 72 11000ft 188kts
31-Oct-21 10:03 35.789132 -112.869350 72 11000ft 187kts
31-Oct-21 10:04 35.803863 -112.807951 71 11000ft 186kts
31-Oct-21 10:05 35.818500 -112.746803 71 11000ft 185kts
31-Oct-21 10:06 35.833146 -112.685456 74 11001ft 187kts
31-Oct-21 10:07 35.847883 -112.623522 74 11001ft 188kts
31-Oct-21 10:08 35.862645 -112.561399 73 11001ft 189kts
31-Oct-21 10:09 35.877319 -112.499471 74 11001ft 189kts
31-Oct-21 10:10 35.891978 -112.437381 74 10999ft 186kts
31-Oct-21 10:11 35.905918 -112.378264 74 10995ft 172kts
31-Oct-21 10:12 35.916764 -112.324616 77 10996ft 153kts
31-Oct-21 10:13 35.928644 -112.272913 72 10584ft 157kts
31-Oct-21 10:14 35.945095 -112.223660 77 10086ft 153kts
31-Oct-21 10:15 35.948343 -112.176391 93 9539ft 133kts
31-Oct-21 10:16 35.950644 -112.133247 69 8628ft 123kts
31-Oct-21 10:17 35.971775 -112.104423 341 7986ft 105kts
31-Oct-21 10:18 35.967246 -112.131187 221 6937ft 89kts
31-Oct-21 10:19 35.956430 -112.141384 117 6609ft 5kts
31-Oct-21 10:20 35.956404 -112.141118 81 6610ft 6kts
31-Oct-21 10:21 35.955963 -112.140473 294 6615ft 0kts
31-Oct-21 10:22 35.955963 -112.140473 294 6615ft 0kts

Navigation Log

Ident Type
Flight plan parsing failed, navigation log unavailable